KORF/ORF METAR and TAF weather

Enter ICAO airport designator
Station Type Date Time Source
KORF METAR 2020/02/19 11:31 UTC NOAA

KORF 191131Z 36019G26KT 10SM SCT026 OVC031 09/06 A3018 RMK AO2 PK WND 02028/1118 T00940061


Station Type Date Time Source
KORF Decoded METAR 2020/02/19 11:31 UTC NOAA

NORFOLK INTERNATIONAL AIRPORT , VA, United States (KORF) 36-54N 076-12W 14M
Feb 19, 2020 - 06:31 AM EST / 2020.02.19 1131 UTC
Wind: from the N (360 degrees) at 22 MPH (19 KT) gusting to 30 MPH (26 KT):0
Visibility: 10 mile(s):0
Sky conditions: overcast
Temperature: 48.9 F (9.4 C)
Dew Point: 43.0 F (6.1 C)
Relative Humidity: 79%
Pressure (altimeter): 30.18 in. Hg (1022 hPa)
ob: KORF 191131Z 36019G26KT 10SM SCT026 OVC031 09/06 A3018 RMK AO2 PK WND 02028/1118 T00940061
cycle: 11

Station Type Date Time Source
KORF TAF 2020/02/19 12:34 UTC NOAA

TAF KORF 191131Z 1912/2012 01013G23KT P6SM VCSH SCT025 OVC035
FM191500 36013G20KT P6SM BKN050 BKN150
FM192200 01010KT P6SM SCT250
FM200800 03008KT P6SM BKN200

Example: see airport list